Pierson, IA (51048)

5:05 PM CDT on July 22, 2014 (GMT -0500)
SSW Union (KIAKINGS2) Elev 1368 ft | 42.66 °N, 96.06 °W | Change Station

Current weather conditions updated 14 minutes ago

Partly Cloudy
Partly Cloudy
79.6 °F
Feels Like 82 °F
N
8.0
Wind Variable Wind from NE
Gusts 17.0 mph

Tomorrow is forecast to be nearly the same temperature as today.

Today
High -- | Low -- °F
--% Chance of Precip.
Yesterday
High -- | Low -- °F
Precip. -- in
6:05 AM 8:53 PM
Waning Crescent, 14% visible
Pressure 30.10 in
Visibility 10.0 miles
Clouds Clear
Heat Index 82 °F
Dew Point 68 °F
Humidity 68%
Rainfall 0.00 in
Snow Depth Not available.
UV 6 out of 12
Pollen 6.00 out of 12
Air Quality Not available.
Flu Activity Not available.
METAR KCKP 222155Z AUTO 36011G15KT 10SM CLR 27/19 A3010 RMK AO2 T02740189

More Conditions Fewer Conditions

Pressure 30.10 in
Visibility 10.0 miles
Clouds Clear
Heat Index 82 °F
Dew Point 68 °F
Humidity 68%
Rainfall 0.00 in
Snow Depth Not available.
UV 6 out of 12
Pollen 6.00 out of 12
Air Quality Not available.
Flu Activity Not available.
METAR KCKP 222155Z AUTO 36011G15KT 10SM CLR 27/19 A3010 RMK AO2 T02740189

More Conditions Fewer Conditions

10-Day Weather Forecast

Almanac

Astronomy

Jul. 22, 2014 Rise Set
Actual Time 6:05 AM CDT 8:53 PM CDT
Civil Twilight 5:32 AM CDT 9:26 PM CDT
Nautical Twilight 4:50 AM CDT 10:08 PM CDT
Astronomical Twilight 4:02 AM CDT 10:55 PM CDT
Moon 2:40 AM CDT 5:31 PM CDT
Length of Visible Light 15h 53m
Length of Day
14h 47m
Tomorrow will be 1m 51s shorter.
Waning Crescent, 14% of the Moon is Illuminated
Today
Waning Crescent
Jul 26
New
Aug 3
First Quarter
Aug 10
Full
Aug 17
Last Quarter

Today's Extremes

State Highs State Lows

Community

WunderPhotos

Upload Photos

1,736,372 photos uploaded!

Nearby

Snow Depth

Station Depth Elevation
No new snow has been reported.

Earthquake Activity

City Distance Mag. Time & Date
No recent earthquake activity has been reported nearby.
Minimum magnitude displayed is 2.5.

Coastal Water Temperatures

Place Temperature
No Stations Reporting

Nearby Weather Stations

Station Location Temp. Heat Index Dew Point Humidity Wind Precip. Elev Updated Type
SSW Union, Kingsley, IA 79.6 °F 82 °F 68 °F 68% NE  at  8.0 mph 0.00 in / hr 1368 ft 4:50 PM CDT Normal
South of LeMars, LeMars, IA 81.7 °F 84 °F 67 °F 62% NNE  at  8.9 mph - / hr 1250 ft 4:45 PM CDT Normal
The Danbury Review, Danbury, IA 81.6 °F 86 °F 71 °F 70% NW  at  0.0 mph 0.00 in / hr 1162 ft 5:05 PM CDT Normal
Down Town, LeMars, IA 83.8 °F 83 °F 55 °F 37% NNE  at  7.0 mph 0.00 in / hr 1220 ft 4:56 PM CDT Normal
HADS WEST FORK DITCH AT HORNICK IA, Rodney, IA 81 °F 79 °F - - North  at  - 0.00 in / hr 1045 ft 4:00 PM CDT MADIS

Show More Stations Show Fewer Stations